sensor_id;sensor_type;location;lat;lon;timestamp;temperature;humidity
22629;DHT22;11481;53.694;9.910;2023-02-12T00:02:02;7.30;99.90
22629;DHT22;11481;53.694;9.910;2023-02-12T00:04:28;7.20;99.90
22629;DHT22;11481;53.694;9.910;2023-02-12T00:06:55;7.20;99.90
22629;DHT22;11481;53.694;9.910;2023-02-12T00:09:22;7.20;99.90
22629;DHT22;11481;53.694;9.910;2023-02-12T00:11:48;7.20;99.90
22629;DHT22;11481;53.694;9.910;2023-02-12T00:14:15;7.20;99.90
22629;DHT22;11481;53.694;9.910;2023-02-12T00:16:41;7.20;99.90
22629;DHT22;11481;53.694;9.910;2023-02-12T00:19:08;7.30;99.90
22629;DHT22;11481;53.694;9.910;2023-02-12T00:21:35;7.20;99.90
22629;DHT22;11481;53.694;9.910;2023-02-12T00:24:02;7.10;99.90
22629;DHT22;11481;53.694;9.910;2023-02-12T00:26:29;7.10;99.90
22629;DHT22;11481;53.694;9.910;2023-02-12T00:28:56;7.10;99.90
22629;DHT22;11481;53.694;9.910;2023-02-12T00:31:25;7.10;99.90
22629;DHT22;11481;53.694;9.910;2023-02-12T00:33:52;7.10;99.90
22629;DHT22;11481;53.694;9.910;2023-02-12T00:36:22;7.10;99.90
22629;DHT22;11481;53.694;9.910;2023-02-12T00:38:54;7.00;99.90
22629;DHT22;11481;53.694;9.910;2023-02-12T00:41:21;7.10;99.90
22629;DHT22;11481;53.694;9.910;2023-02-12T00:43:48;7.10;99.90
22629;DHT22;11481;53.694;9.910;2023-02-12T00:46:15;7.20;99.90
22629;DHT22;11481;53.694;9.910;2023-02-12T00:48:42;7.10;99.90
22629;DHT22;11481;53.694;9.910;2023-02-12T00:51:09;7.10;99.90
22629;DHT22;11481;53.694;9.910;2023-02-12T00:53:36;7.10;99.90
22629;DHT22;11481;53.694;9.910;2023-02-12T00:56:03;7.20;99.90
22629;DHT22;11481;53.694;9.910;2023-02-12T00:58:30;7.20;99.90
22629;DHT22;11481;53.694;9.910;2023-02-12T01:00:56;7.10;99.90
22629;DHT22;11481;53.694;9.910;2023-02-12T01:03:23;7.10;99.90
22629;DHT22;11481;53.694;9.910;2023-02-12T01:05:50;7.10;99.90
22629;DHT22;11481;53.694;9.910;2023-02-12T01:08:17;7.00;99.90
22629;DHT22;11481;53.694;9.910;2023-02-12T01:10:44;7.00;99.90
22629;DHT22;11481;53.694;9.910;2023-02-12T01:13:14;7.10;99.90
22629;DHT22;11481;53.694;9.910;2023-02-12T01:15:41;7.10;99.90
22629;DHT22;11481;53.694;9.910;2023-02-12T01:18:08;7.10;99.90
22629;DHT22;11481;53.694;9.910;2023-02-12T01:20:35;7.00;99.90
22629;DHT22;11481;53.694;9.910;2023-02-12T01:23:02;7.00;99.90
22629;DHT22;11481;53.694;9.910;2023-02-12T01:25:29;7.00;99.90
22629;DHT22;11481;53.694;9.910;2023-02-12T01:27:56;7.00;99.90
22629;DHT22;11481;53.694;9.910;2023-02-12T01:30:22;7.00;99.90
22629;DHT22;11481;53.694;9.910;2023-02-12T01:32:49;6.90;99.90
22629;DHT22;11481;53.694;9.910;2023-02-12T01:35:16;6.90;99.90
22629;DHT22;11481;53.694;9.910;2023-02-12T01:37:43;6.90;99.90
22629;DHT22;11481;53.694;9.910;2023-02-12T01:40:12;6.90;99.90
22629;DHT22;11481;53.694;9.910;2023-02-12T01:42:40;6.90;99.90
22629;DHT22;11481;53.694;9.910;2023-02-12T01:48:02;6.90;99.90
22629;DHT22;11481;53.694;9.910;2023-02-12T01:50:29;6.90;99.90
22629;DHT22;11481;53.694;9.910;2023-02-12T01:52:56;6.90;99.90
22629;DHT22;11481;53.694;9.910;2023-02-12T01:55:24;7.00;99.90
22629;DHT22;11481;53.694;9.910;2023-02-12T01:57:51;7.00;99.90
22629;DHT22;11481;53.694;9.910;2023-02-12T02:00:22;7.10;99.90
22629;DHT22;11481;53.694;9.910;2023-02-12T02:02:57;7.10;99.90
22629;DHT22;11481;53.694;9.910;2023-02-12T02:05:48;7.10;99.90
22629;DHT22;11481;53.694;9.910;2023-02-12T02:08:20;7.10;99.90
22629;DHT22;11481;53.694;9.910;2023-02-12T02:10:47;7.10;99.90
22629;DHT22;11481;53.694;9.910;2023-02-12T02:13:14;7.10;99.90
22629;DHT22;11481;53.694;9.910;2023-02-12T02:16:05;7.10;99.90
22629;DHT22;11481;53.694;9.910;2023-02-12T02:18:57;7.00;99.90
22629;DHT22;11481;53.694;9.910;2023-02-12T02:24:46;7.00;99.90
22629;DHT22;11481;53.694;9.910;2023-02-12T02:27:19;7.10;99.90
22629;DHT22;11481;53.694;9.910;2023-02-12T02:35:25;7.10;99.90
22629;DHT22;11481;53.694;9.910;2023-02-12T02:38:17;7.10;99.90
22629;DHT22;11481;53.694;9.910;2023-02-12T02:43:27;7.10;99.90
22629;DHT22;11481;53.694;9.910;2023-02-12T02:46:01;7.10;99.90
22629;DHT22;11481;53.694;9.910;2023-02-12T02:48:35;7.10;99.90
22629;DHT22;11481;53.694;9.910;2023-02-12T02:51:09;7.10;99.90
22629;DHT22;11481;53.694;9.910;2023-02-12T02:53:47;7.10;99.90
22629;DHT22;11481;53.694;9.910;2023-02-12T02:56:16;7.10;99.90
22629;DHT22;11481;53.694;9.910;2023-02-12T02:58:57;7.10;99.90
22629;DHT22;11481;53.694;9.910;2023-02-12T03:01:35;7.10;99.90
22629;DHT22;11481;53.694;9.910;2023-02-12T03:04:20;7.10;99.90
22629;DHT22;11481;53.694;9.910;2023-02-12T03:07:02;7.10;99.90
22629;DHT22;11481;53.694;9.910;2023-02-12T03:09:36;7.20;99.90
22629;DHT22;11481;53.694;9.910;2023-02-12T03:12:10;7.20;99.90
22629;DHT22;11481;53.694;9.910;2023-02-12T03:14:46;7.20;99.90
22629;DHT22;11481;53.694;9.910;2023-02-12T03:17:21;7.20;99.90
22629;DHT22;11481;53.694;9.910;2023-02-12T03:19:56;7.20;99.90
22629;DHT22;11481;53.694;9.910;2023-02-12T03:22:30;7.20;99.90
22629;DHT22;11481;53.694;9.910;2023-02-12T03:25:03;7.20;99.90
22629;DHT22;11481;53.694;9.910;2023-02-12T03:27:45;7.20;99.90
22629;DHT22;11481;53.694;9.910;2023-02-12T03:30:13;7.20;99.90
22629;DHT22;11481;53.694;9.910;2023-02-12T03:37:57;7.10;99.90
22629;DHT22;11481;53.694;9.910;2023-02-12T03:40:33;7.10;99.90
22629;DHT22;11481;53.694;9.910;2023-02-12T03:43:22;7.10;99.90
22629;DHT22;11481;53.694;9.910;2023-02-12T03:45:59;7.10;99.90
22629;DHT22;11481;53.694;9.910;2023-02-12T03:48:40;7.20;99.90
22629;DHT22;11481;53.694;9.910;2023-02-12T03:53:57;7.20;99.90
22629;DHT22;11481;53.694;9.910;2023-02-12T03:56:46;7.20;99.90
22629;DHT22;11481;53.694;9.910;2023-02-12T03:59:18;7.20;99.90
22629;DHT22;11481;53.694;9.910;2023-02-12T04:01:47;7.30;99.90
22629;DHT22;11481;53.694;9.910;2023-02-12T04:04:15;7.30;99.90
22629;DHT22;11481;53.694;9.910;2023-02-12T04:06:44;7.40;99.90
22629;DHT22;11481;53.694;9.910;2023-02-12T04:09:12;7.40;99.90
22629;DHT22;11481;53.694;9.910;2023-02-12T04:11:46;7.40;99.90
22629;DHT22;11481;53.694;9.910;2023-02-12T04:16:56;7.40;99.90
22629;DHT22;11481;53.694;9.910;2023-02-12T04:19:32;7.40;99.90
22629;DHT22;11481;53.694;9.910;2023-02-12T04:22:51;7.40;99.90
22629;DHT22;11481;53.694;9.910;2023-02-12T04:30:36;7.60;99.90
22629;DHT22;11481;53.694;9.910;2023-02-12T04:33:07;7.60;99.90
22629;DHT22;11481;53.694;9.910;2023-02-12T04:36:00;7.60;99.90
22629;DHT22;11481;53.694;9.910;2023-02-12T04:38:34;7.60;99.90
22629;DHT22;11481;53.694;9.910;2023-02-12T04:41:05;7.70;99.90
22629;DHT22;11481;53.694;9.910;2023-02-12T04:43:34;7.70;99.90
22629;DHT22;11481;53.694;9.910;2023-02-12T04:46:04;7.70;99.90
22629;DHT22;11481;53.694;9.910;2023-02-12T04:48:31;7.60;99.90
22629;DHT22;11481;53.694;9.910;2023-02-12T04:51:00;7.60;99.90
22629;DHT22;11481;53.694;9.910;2023-02-12T04:53:26;7.60;99.90
22629;DHT22;11481;53.694;9.910;2023-02-12T04:55:53;7.70;99.90
22629;DHT22;11481;53.694;9.910;2023-02-12T04:58:21;7.70;99.90
22629;DHT22;11481;53.694;9.910;2023-02-12T05:00:48;7.70;99.90
22629;DHT22;11481;53.694;9.910;2023-02-12T05:03:14;7.60;99.90
22629;DHT22;11481;53.694;9.910;2023-02-12T05:05:41;7.60;99.90
22629;DHT22;11481;53.694;9.910;2023-02-12T05:08:08;7.60;99.90
22629;DHT22;11481;53.694;9.910;2023-02-12T05:10:34;7.60;99.90
22629;DHT22;11481;53.694;9.910;2023-02-12T05:13:01;7.60;99.90
22629;DHT22;11481;53.694;9.910;2023-02-12T05:15:28;7.60;99.90
22629;DHT22;11481;53.694;9.910;2023-02-12T05:17:55;7.60;99.90
22629;DHT22;11481;53.694;9.910;2023-02-12T05:20:21;7.50;99.90
22629;DHT22;11481;53.694;9.910;2023-02-12T05:22:51;7.50;99.90
22629;DHT22;11481;53.694;9.910;2023-02-12T05:25:18;7.50;99.90
22629;DHT22;11481;53.694;9.910;2023-02-12T05:27:45;7.50;99.90
22629;DHT22;11481;53.694;9.910;2023-02-12T05:30:12;7.60;99.90
22629;DHT22;11481;53.694;9.910;2023-02-12T05:32:39;7.60;99.90
22629;DHT22;11481;53.694;9.910;2023-02-12T05:35:06;7.60;99.90
22629;DHT22;11481;53.694;9.910;2023-02-12T05:37:35;7.60;99.90
22629;DHT22;11481;53.694;9.910;2023-02-12T05:40:04;7.60;99.90
22629;DHT22;11481;53.694;9.910;2023-02-12T05:42:31;7.60;99.90
22629;DHT22;11481;53.694;9.910;2023-02-12T05:44:57;7.60;99.90
22629;DHT22;11481;53.694;9.910;2023-02-12T05:47:24;7.60;99.90
22629;DHT22;11481;53.694;9.910;2023-02-12T05:49:51;7.60;99.90
22629;DHT22;11481;53.694;9.910;2023-02-12T05:52:18;7.70;99.90
22629;DHT22;11481;53.694;9.910;2023-02-12T05:54:47;7.60;99.90
22629;DHT22;11481;53.694;9.910;2023-02-12T05:57:14;7.60;99.90
22629;DHT22;11481;53.694;9.910;2023-02-12T05:59:40;7.60;99.90
22629;DHT22;11481;53.694;9.910;2023-02-12T06:02:07;7.60;99.90
22629;DHT22;11481;53.694;9.910;2023-02-12T06:04:34;7.60;99.90
22629;DHT22;11481;53.694;9.910;2023-02-12T06:07:00;7.60;99.90
22629;DHT22;11481;53.694;9.910;2023-02-12T06:09:27;7.70;99.90
22629;DHT22;11481;53.694;9.910;2023-02-12T06:11:54;7.70;99.90
22629;DHT22;11481;53.694;9.910;2023-02-12T06:14:20;7.70;99.90
22629;DHT22;11481;53.694;9.910;2023-02-12T06:16:49;7.70;99.90
22629;DHT22;11481;53.694;9.910;2023-02-12T06:19:17;7.70;99.90
22629;DHT22;11481;53.694;9.910;2023-02-12T06:21:44;7.60;99.90
22629;DHT22;11481;53.694;9.910;2023-02-12T06:24:12;7.60;99.90
22629;DHT22;11481;53.694;9.910;2023-02-12T06:26:39;7.70;99.90
22629;DHT22;11481;53.694;9.910;2023-02-12T06:29:06;7.70;99.90
22629;DHT22;11481;53.694;9.910;2023-02-12T06:31:34;7.70;99.90
22629;DHT22;11481;53.694;9.910;2023-02-12T06:34:06;7.60;99.90
22629;DHT22;11481;53.694;9.910;2023-02-12T06:36:37;7.60;99.90
22629;DHT22;11481;53.694;9.910;2023-02-12T06:39:04;7.50;99.90
22629;DHT22;11481;53.694;9.910;2023-02-12T06:41:31;7.60;99.90
22629;DHT22;11481;53.694;9.910;2023-02-12T06:43:57;7.60;99.90
22629;DHT22;11481;53.694;9.910;2023-02-12T06:46:25;7.60;99.90
22629;DHT22;11481;53.694;9.910;2023-02-12T06:48:53;7.70;99.90
22629;DHT22;11481;53.694;9.910;2023-02-12T06:51:20;7.60;99.90
22629;DHT22;11481;53.694;9.910;2023-02-12T06:53:50;7.60;99.90
22629;DHT22;11481;53.694;9.910;2023-02-12T06:56:18;7.60;99.90
22629;DHT22;11481;53.694;9.910;2023-02-12T06:58:50;7.60;99.90
22629;DHT22;11481;53.694;9.910;2023-02-12T07:01:19;7.60;99.90
22629;DHT22;11481;53.694;9.910;2023-02-12T07:03:52;7.70;99.90
22629;DHT22;11481;53.694;9.910;2023-02-12T07:06:20;7.60;99.90
22629;DHT22;11481;53.694;9.910;2023-02-12T07:08:47;7.60;99.90
22629;DHT22;11481;53.694;9.910;2023-02-12T07:11:14;7.60;99.90
22629;DHT22;11481;53.694;9.910;2023-02-12T07:13:43;7.70;99.90
22629;DHT22;11481;53.694;9.910;2023-02-12T07:16:13;7.70;99.90
22629;DHT22;11481;53.694;9.910;2023-02-12T07:18:41;7.70;99.90
22629;DHT22;11481;53.694;9.910;2023-02-12T07:21:09;7.70;99.90
22629;DHT22;11481;53.694;9.910;2023-02-12T07:23:37;7.80;99.90
22629;DHT22;11481;53.694;9.910;2023-02-12T07:26:06;7.70;99.90
22629;DHT22;11481;53.694;9.910;2023-02-12T07:28:34;7.70;99.90
22629;DHT22;11481;53.694;9.910;2023-02-12T07:31:10;7.80;99.90
22629;DHT22;11481;53.694;9.910;2023-02-12T07:33:38;7.80;99.90
22629;DHT22;11481;53.694;9.910;2023-02-12T07:36:07;7.80;99.90
22629;DHT22;11481;53.694;9.910;2023-02-12T07:38:34;7.80;99.90
22629;DHT22;11481;53.694;9.910;2023-02-12T07:41:09;7.70;99.90
22629;DHT22;11481;53.694;9.910;2023-02-12T07:43:42;7.70;99.90
22629;DHT22;11481;53.694;9.910;2023-02-12T07:46:18;7.70;99.90
22629;DHT22;11481;53.694;9.910;2023-02-12T07:48:45;7.70;99.90
22629;DHT22;11481;53.694;9.910;2023-02-12T07:51:16;7.80;99.90
22629;DHT22;11481;53.694;9.910;2023-02-12T07:53:45;7.80;99.90
22629;DHT22;11481;53.694;9.910;2023-02-12T07:56:14;7.80;99.90
22629;DHT22;11481;53.694;9.910;2023-02-12T07:58:42;7.80;99.90
22629;DHT22;11481;53.694;9.910;2023-02-12T08:01:25;7.90;99.90
22629;DHT22;11481;53.694;9.910;2023-02-12T08:04:00;8.00;99.90
22629;DHT22;11481;53.694;9.910;2023-02-12T08:06:29;7.90;99.90
22629;DHT22;11481;53.694;9.910;2023-02-12T08:08:59;7.90;99.90
22629;DHT22;11481;53.694;9.910;2023-02-12T08:11:27;7.90;99.90
22629;DHT22;11481;53.694;9.910;2023-02-12T08:13:55;8.00;99.90
22629;DHT22;11481;53.694;9.910;2023-02-12T08:16:24;8.00;99.90
22629;DHT22;11481;53.694;9.910;2023-02-12T08:18:52;7.90;99.90
22629;DHT22;11481;53.694;9.910;2023-02-12T08:21:24;8.00;99.90
22629;DHT22;11481;53.694;9.910;2023-02-12T08:23:52;8.00;99.90
22629;DHT22;11481;53.694;9.910;2023-02-12T08:26:32;8.00;99.90
22629;DHT22;11481;53.694;9.910;2023-02-12T08:29:07;8.00;99.90
22629;DHT22;11481;53.694;9.910;2023-02-12T08:31:42;8.10;99.90
22629;DHT22;11481;53.694;9.910;2023-02-12T08:34:22;8.00;99.90
22629;DHT22;11481;53.694;9.910;2023-02-12T08:36:51;8.00;99.90
22629;DHT22;11481;53.694;9.910;2023-02-12T08:39:20;8.10;99.90
22629;DHT22;11481;53.694;9.910;2023-02-12T08:41:48;8.10;99.90
22629;DHT22;11481;53.694;9.910;2023-02-12T08:44:15;8.10;99.90
22629;DHT22;11481;53.694;9.910;2023-02-12T08:46:48;8.20;99.90
22629;DHT22;11481;53.694;9.910;2023-02-12T08:49:22;8.10;99.90
22629;DHT22;11481;53.694;9.910;2023-02-12T08:51:53;8.20;99.90
22629;DHT22;11481;53.694;9.910;2023-02-12T08:54:22;8.20;99.90
22629;DHT22;11481;53.694;9.910;2023-02-12T08:56:53;8.20;99.90
22629;DHT22;11481;53.694;9.910;2023-02-12T08:59:20;8.20;99.90
22629;DHT22;11481;53.694;9.910;2023-02-12T09:01:49;8.20;99.90
22629;DHT22;11481;53.694;9.910;2023-02-12T09:04:19;8.30;99.90
22629;DHT22;11481;53.694;9.910;2023-02-12T09:06:48;8.20;99.90
22629;DHT22;11481;53.694;9.910;2023-02-12T09:09:15;8.20;99.90
22629;DHT22;11481;53.694;9.910;2023-02-12T09:11:42;8.20;99.90
22629;DHT22;11481;53.694;9.910;2023-02-12T09:14:13;8.20;99.90
22629;DHT22;11481;53.694;9.910;2023-02-12T09:16:40;8.30;99.90
22629;DHT22;11481;53.694;9.910;2023-02-12T09:19:10;8.30;99.90
22629;DHT22;11481;53.694;9.910;2023-02-12T09:21:37;8.30;99.90
22629;DHT22;11481;53.694;9.910;2023-02-12T09:24:04;8.40;99.90
22629;DHT22;11481;53.694;9.910;2023-02-12T09:26:30;8.30;99.90
22629;DHT22;11481;53.694;9.910;2023-02-12T09:28:57;8.40;99.90
22629;DHT22;11481;53.694;9.910;2023-02-12T09:31:26;8.40;99.90
22629;DHT22;11481;53.694;9.910;2023-02-12T09:33:58;8.40;99.90
22629;DHT22;11481;53.694;9.910;2023-02-12T09:36:25;8.40;99.90
22629;DHT22;11481;53.694;9.910;2023-02-12T09:38:52;8.40;99.90
22629;DHT22;11481;53.694;9.910;2023-02-12T09:41:39;8.30;99.90
22629;DHT22;11481;53.694;9.910;2023-02-12T09:44:26;8.30;99.90
22629;DHT22;11481;53.694;9.910;2023-02-12T09:50:05;8.30;99.90
22629;DHT22;11481;53.694;9.910;2023-02-12T09:52:35;8.30;99.90
22629;DHT22;11481;53.694;9.910;2023-02-12T09:55:03;8.30;99.90
22629;DHT22;11481;53.694;9.910;2023-02-12T09:57:35;8.40;99.90
22629;DHT22;11481;53.694;9.910;2023-02-12T10:00:21;8.40;99.90
22629;DHT22;11481;53.694;9.910;2023-02-12T10:02:53;8.40;99.90
22629;DHT22;11481;53.694;9.910;2023-02-12T10:05:30;8.40;99.90
22629;DHT22;11481;53.694;9.910;2023-02-12T10:10:59;8.40;99.90
22629;DHT22;11481;53.694;9.910;2023-02-12T10:21:51;8.50;99.90
22629;DHT22;11481;53.694;9.910;2023-02-12T10:24:32;8.50;99.90
22629;DHT22;11481;53.694;9.910;2023-02-12T10:27:08;8.60;99.90
22629;DHT22;11481;53.694;9.910;2023-02-12T10:29:38;8.60;99.90
22629;DHT22;11481;53.694;9.910;2023-02-12T10:32:20;8.80;99.90
22629;DHT22;11481;53.694;9.910;2023-02-12T10:34:49;8.60;99.90
22629;DHT22;11481;53.694;9.910;2023-02-12T10:37:36;8.60;99.90
22629;DHT22;11481;53.694;9.910;2023-02-12T10:40:22;8.60;99.90
22629;DHT22;11481;53.694;9.910;2023-02-12T10:42:52;8.50;99.90
22629;DHT22;11481;53.694;9.910;2023-02-12T10:45:35;8.60;99.90
22629;DHT22;11481;53.694;9.910;2023-02-12T10:50:51;8.60;99.90
22629;DHT22;11481;53.694;9.910;2023-02-12T10:53:24;8.60;99.90
22629;DHT22;11481;53.694;9.910;2023-02-12T10:59:01;8.50;99.90
22629;DHT22;11481;53.694;9.910;2023-02-12T11:03:56;8.50;99.90
22629;DHT22;11481;53.694;9.910;2023-02-12T11:06:30;8.50;99.90
22629;DHT22;11481;53.694;9.910;2023-02-12T11:08:57;8.40;99.90
22629;DHT22;11481;53.694;9.910;2023-02-12T11:11:36;8.40;99.90
22629;DHT22;11481;53.694;9.910;2023-02-12T11:14:23;8.50;99.90
22629;DHT22;11481;53.694;9.910;2023-02-12T11:16:58;8.50;99.90
22629;DHT22;11481;53.694;9.910;2023-02-12T11:19:30;8.50;99.90
22629;DHT22;11481;53.694;9.910;2023-02-12T11:22:09;8.50;99.90
22629;DHT22;11481;53.694;9.910;2023-02-12T11:24:37;8.50;99.90
22629;DHT22;11481;53.694;9.910;2023-02-12T11:27:24;8.50;99.90
22629;DHT22;11481;53.694;9.910;2023-02-12T11:30:24;8.60;99.90
22629;DHT22;11481;53.694;9.910;2023-02-12T11:32:50;8.50;99.90
22629;DHT22;11481;53.694;9.910;2023-02-12T11:37:56;8.60;99.90
22629;DHT22;11481;53.694;9.910;2023-02-12T11:40:26;8.60;99.90
22629;DHT22;11481;53.694;9.910;2023-02-12T11:42:59;8.50;99.90
22629;DHT22;11481;53.694;9.910;2023-02-12T11:45:41;8.60;99.90
22629;DHT22;11481;53.694;9.910;2023-02-12T11:48:17;8.70;99.90
22629;DHT22;11481;53.694;9.910;2023-02-12T11:50:50;8.70;99.90
22629;DHT22;11481;53.694;9.910;2023-02-12T11:53:34;8.90;99.90
22629;DHT22;11481;53.694;9.910;2023-02-12T11:56:05;8.60;99.90
22629;DHT22;11481;53.694;9.910;2023-02-12T11:58:32;8.50;99.90
22629;DHT22;11481;53.694;9.910;2023-02-12T12:01:04;8.50;99.90
22629;DHT22;11481;53.694;9.910;2023-02-12T12:03:54;8.50;99.90
22629;DHT22;11481;53.694;9.910;2023-02-12T12:09:34;8.60;99.90
22629;DHT22;11481;53.694;9.910;2023-02-12T12:14:53;8.60;99.90
22629;DHT22;11481;53.694;9.910;2023-02-12T12:17:46;8.60;99.90
22629;DHT22;11481;53.694;9.910;2023-02-12T12:20:54;8.60;99.90
22629;DHT22;11481;53.694;9.910;2023-02-12T12:23:33;8.70;99.90
22629;DHT22;11481;53.694;9.910;2023-02-12T12:26:10;8.60;99.90
22629;DHT22;11481;53.694;9.910;2023-02-12T12:28:56;8.70;99.90
22629;DHT22;11481;53.694;9.910;2023-02-12T12:31:42;8.70;99.90
22629;DHT22;11481;53.694;9.910;2023-02-12T12:34:12;8.80;99.90
22629;DHT22;11481;53.694;9.910;2023-02-12T12:48:36;8.60;99.90
22629;DHT22;11481;53.694;9.910;2023-02-12T12:54:07;8.60;99.90
22629;DHT22;11481;53.694;9.910;2023-02-12T13:07:52;8.50;99.90
22629;DHT22;11481;53.694;9.910;2023-02-12T13:13:05;8.60;99.90
22629;DHT22;11481;53.694;9.910;2023-02-12T13:15:54;8.60;99.90
22629;DHT22;11481;53.694;9.910;2023-02-12T13:21:50;8.60;99.90
22629;DHT22;11481;53.694;9.910;2023-02-12T13:24:06;8.60;99.90
22629;DHT22;11481;53.694;9.910;2023-02-12T13:26:49;8.70;99.90
22629;DHT22;11481;53.694;9.910;2023-02-12T13:29:37;8.70;99.90
22629;DHT22;11481;53.694;9.910;2023-02-12T13:32:31;8.70;99.90
22629;DHT22;11481;53.694;9.910;2023-02-12T13:34:59;8.70;99.90
22629;DHT22;11481;53.694;9.910;2023-02-12T13:37:42;8.70;99.90
22629;DHT22;11481;53.694;9.910;2023-02-12T13:40:18;8.60;99.90
22629;DHT22;11481;53.694;9.910;2023-02-12T13:45:34;8.50;99.90
22629;DHT22;11481;53.694;9.910;2023-02-12T13:51:28;8.60;99.90
22629;DHT22;11481;53.694;9.910;2023-02-12T13:58:59;8.60;99.90
22629;DHT22;11481;53.694;9.910;2023-02-12T14:04:31;8.70;99.90
22629;DHT22;11481;53.694;9.910;2023-02-12T14:07:09;8.60;99.90
22629;DHT22;11481;53.694;9.910;2023-02-12T14:09:37;8.60;99.90
22629;DHT22;11481;53.694;9.910;2023-02-12T14:12:31;8.50;99.90
22629;DHT22;11481;53.694;9.910;2023-02-12T14:36:11;8.50;99.90
22629;DHT22;11481;53.694;9.910;2023-02-12T14:47:14;8.40;99.90
22629;DHT22;11481;53.694;9.910;2023-02-12T14:49:51;8.40;99.90
22629;DHT22;11481;53.694;9.910;2023-02-12T14:52:29;8.50;99.90
22629;DHT22;11481;53.694;9.910;2023-02-12T14:54:59;8.50;99.90
22629;DHT22;11481;53.694;9.910;2023-02-12T14:57:39;8.40;99.90
22629;DHT22;11481;53.694;9.910;2023-02-12T15:00:44;8.40;99.90
22629;DHT22;11481;53.694;9.910;2023-02-12T15:03:15;8.40;99.90
22629;DHT22;11481;53.694;9.910;2023-02-12T15:05:57;8.50;99.90
22629;DHT22;11481;53.694;9.910;2023-02-12T15:11:13;8.60;99.90
22629;DHT22;11481;53.694;9.910;2023-02-12T15:13:47;8.50;99.90
22629;DHT22;11481;53.694;9.910;2023-02-12T15:16:39;8.50;99.90
22629;DHT22;11481;53.694;9.910;2023-02-12T15:21:45;8.50;99.90
22629;DHT22;11481;53.694;9.910;2023-02-12T15:24:21;8.50;99.90
22629;DHT22;11481;53.694;9.910;2023-02-12T15:26:53;8.60;99.90
22629;DHT22;11481;53.694;9.910;2023-02-12T15:29:30;8.50;99.90
22629;DHT22;11481;53.694;9.910;2023-02-12T15:32:04;8.40;99.90
22629;DHT22;11481;53.694;9.910;2023-02-12T15:34:33;8.40;99.90
22629;DHT22;11481;53.694;9.910;2023-02-12T15:37:03;8.40;99.90
22629;DHT22;11481;53.694;9.910;2023-02-12T15:39:40;8.50;99.90
22629;DHT22;11481;53.694;9.910;2023-02-12T15:42:32;8.50;99.90
22629;DHT22;11481;53.694;9.910;2023-02-12T15:45:17;8.40;99.90
22629;DHT22;11481;53.694;9.910;2023-02-12T15:48:39;8.40;99.90
22629;DHT22;11481;53.694;9.910;2023-02-12T15:53:33;8.40;99.90
22629;DHT22;11481;53.694;9.910;2023-02-12T15:56:00;8.50;99.90
22629;DHT22;11481;53.694;9.910;2023-02-12T15:58:29;8.40;99.90
22629;DHT22;11481;53.694;9.910;2023-02-12T16:01:02;8.50;99.90
22629;DHT22;11481;53.694;9.910;2023-02-12T16:03:35;8.50;99.90
22629;DHT22;11481;53.694;9.910;2023-02-12T16:06:05;8.50;99.90
22629;DHT22;11481;53.694;9.910;2023-02-12T16:08:37;8.60;99.90
22629;DHT22;11481;53.694;9.910;2023-02-12T16:11:06;8.50;99.90
22629;DHT22;11481;53.694;9.910;2023-02-12T16:13:58;8.50;99.90
22629;DHT22;11481;53.694;9.910;2023-02-12T16:16:37;8.50;99.90
22629;DHT22;11481;53.694;9.910;2023-02-12T16:19:13;8.50;99.90
22629;DHT22;11481;53.694;9.910;2023-02-12T16:21:41;8.40;99.90
22629;DHT22;11481;53.694;9.910;2023-02-12T16:24:30;8.40;99.90
22629;DHT22;11481;53.694;9.910;2023-02-12T16:27:15;8.50;99.90
22629;DHT22;11481;53.694;9.910;2023-02-12T16:29:46;8.40;99.90
22629;DHT22;11481;53.694;9.910;2023-02-12T16:32:38;8.40;99.90
22629;DHT22;11481;53.694;9.910;2023-02-12T16:35:21;8.50;99.90
22629;DHT22;11481;53.694;9.910;2023-02-12T16:38:01;8.40;99.90
22629;DHT22;11481;53.694;9.910;2023-02-12T16:40:31;8.50;99.90
22629;DHT22;11481;53.694;9.910;2023-02-12T16:43:20;8.50;99.90
22629;DHT22;11481;53.694;9.910;2023-02-12T16:45:49;8.50;99.90
22629;DHT22;11481;53.694;9.910;2023-02-12T16:48:19;8.50;99.90
22629;DHT22;11481;53.694;9.910;2023-02-12T16:50:57;8.50;99.90
22629;DHT22;11481;53.694;9.910;2023-02-12T16:53:37;8.50;99.90
22629;DHT22;11481;53.694;9.910;2023-02-12T16:56:12;8.50;99.90
22629;DHT22;11481;53.694;9.910;2023-02-12T16:58:41;8.60;99.90
22629;DHT22;11481;53.694;9.910;2023-02-12T17:01:08;8.50;99.90
22629;DHT22;11481;53.694;9.910;2023-02-12T17:03:36;8.50;99.90
22629;DHT22;11481;53.694;9.910;2023-02-12T17:06:04;8.50;99.90
22629;DHT22;11481;53.694;9.910;2023-02-12T17:08:30;8.50;99.90
22629;DHT22;11481;53.694;9.910;2023-02-12T17:10:57;8.40;99.90
22629;DHT22;11481;53.694;9.910;2023-02-12T17:13:24;8.40;99.90
22629;DHT22;11481;53.694;9.910;2023-02-12T17:15:58;8.30;99.90
22629;DHT22;11481;53.694;9.910;2023-02-12T17:18:29;8.40;99.90
22629;DHT22;11481;53.694;9.910;2023-02-12T17:21:00;8.40;99.90
22629;DHT22;11481;53.694;9.910;2023-02-12T17:23:28;8.30;99.90
22629;DHT22;11481;53.694;9.910;2023-02-12T17:25:54;8.40;99.90
22629;DHT22;11481;53.694;9.910;2023-02-12T17:28:22;8.40;99.90
22629;DHT22;11481;53.694;9.910;2023-02-12T17:30:51;8.40;99.90
22629;DHT22;11481;53.694;9.910;2023-02-12T17:33:19;8.40;99.90
22629;DHT22;11481;53.694;9.910;2023-02-12T17:35:46;8.50;99.90
22629;DHT22;11481;53.694;9.910;2023-02-12T17:38:13;8.50;99.90
22629;DHT22;11481;53.694;9.910;2023-02-12T17:40:39;8.60;99.90
22629;DHT22;11481;53.694;9.910;2023-02-12T17:43:09;8.50;99.90
22629;DHT22;11481;53.694;9.910;2023-02-12T17:45:40;8.50;99.90
22629;DHT22;11481;53.694;9.910;2023-02-12T17:48:14;8.50;99.90
22629;DHT22;11481;53.694;9.910;2023-02-12T17:50:42;8.60;99.90
22629;DHT22;11481;53.694;9.910;2023-02-12T17:53:09;8.60;99.90
22629;DHT22;11481;53.694;9.910;2023-02-12T17:55:39;8.50;99.90
22629;DHT22;11481;53.694;9.910;2023-02-12T17:58:07;8.60;99.90
22629;DHT22;11481;53.694;9.910;2023-02-12T18:00:33;8.50;99.90
22629;DHT22;11481;53.694;9.910;2023-02-12T18:03:00;8.50;99.90
22629;DHT22;11481;53.694;9.910;2023-02-12T18:05:27;8.50;99.90
22629;DHT22;11481;53.694;9.910;2023-02-12T18:07:54;8.50;99.90
22629;DHT22;11481;53.694;9.910;2023-02-12T18:10:21;8.40;99.90
22629;DHT22;11481;53.694;9.910;2023-02-12T18:12:48;8.40;99.90
22629;DHT22;11481;53.694;9.910;2023-02-12T18:15:15;8.40;99.90
22629;DHT22;11481;53.694;9.910;2023-02-12T18:17:46;8.40;99.90
22629;DHT22;11481;53.694;9.910;2023-02-12T18:20:13;8.40;99.90
22629;DHT22;11481;53.694;9.910;2023-02-12T18:22:39;8.40;99.90
22629;DHT22;11481;53.694;9.910;2023-02-12T18:25:07;8.40;99.90
22629;DHT22;11481;53.694;9.910;2023-02-12T18:27:33;8.40;99.90
22629;DHT22;11481;53.694;9.910;2023-02-12T18:30:01;8.40;99.90
22629;DHT22;11481;53.694;9.910;2023-02-12T18:32:28;8.40;99.90
22629;DHT22;11481;53.694;9.910;2023-02-12T18:34:54;8.30;99.90
22629;DHT22;11481;53.694;9.910;2023-02-12T18:37:21;8.40;99.90
22629;DHT22;11481;53.694;9.910;2023-02-12T18:39:48;8.50;99.90
22629;DHT22;11481;53.694;9.910;2023-02-12T18:42:15;8.40;99.90